• Join FlightAware (Why Join?)
  • Login
  • US Flag 
 
09:18PM EST


 

Airport Tracker/Info


-or-


 

Live Flight TrackerFlight Track Log ✈ AFR7302 ✈ 24-Apr-2014 ✈ LFPO / ORY - LFST / SXB

Flight Track Log - Related Links

Times and Time Zones

All times are in EDT time to prevent confusion due to time zone crossing. See the AFR7302 flight status page for this flight to view local times or setup timezone preferences in your user account.

Time Position Orientation Groundspeed Altitude Reporting Facility
EDT Latitude Longitude Course Direction KTS MPH feet Rate Location/Type
05:06AM 48.7196 2.7580 91° East  Level Estimated
05:07AM 48.7179 2.8576 91° East  Level Estimated
05:08AM 48.7162 2.9572 91° East  Level Estimated
05:09AM 48.7144 3.0568 92° East  Level Estimated
05:10AM 48.7125 3.1564 92° East  Level Estimated
05:11AM 48.7105 3.2560 92° East  Level Estimated
05:12AM 48.7084 3.3555 92° East  Level Estimated
05:13AM 48.7063 3.4551 92° East  Level Estimated
05:14AM 48.7040 3.5547 92° East  Level Estimated
05:15AM 48.7017 3.6542 92° East  Level Estimated
05:16AM 48.6993 3.7538 92° East  Level Estimated
05:17AM 48.6968 3.8533 92° East  Level Estimated
05:18AM 48.6942 3.9528 92° East  Level Estimated
05:19AM 48.6915 4.0523 92° East  Level Estimated
05:20AM 48.6888 4.1518 92° East  Level Estimated
05:21AM 48.6860 4.2513 92° East  Level Estimated
05:22AM 48.6830 4.3508 93° East  Level Estimated
05:23AM 48.6800 4.4503 93° East  Level Estimated
05:24AM 48.6769 4.5497 93° East  Level Estimated
05:25AM 48.6737 4.6492 93° East  Level Estimated
05:26AM 48.6704 4.7486 93° East  Level Estimated
05:27AM 48.6671 4.8480 93° East  Level Estimated
05:28AM 48.6637 4.9474 93° East  Level Estimated
05:29AM 48.6601 5.0468 93° East  Level Estimated
05:30AM 48.6565 5.1462 93° East  Level Estimated
05:31AM 48.6528 5.2455 93° East  Level Estimated
05:32AM 48.6490 5.3449 93° East  Level Estimated
05:33AM 48.6452 5.4442 93° East  Level Estimated
05:34AM 48.6412 5.5435 93° East  Level Estimated
05:35AM 48.6372 5.6428 93° East  Level Estimated
05:36AM 48.6330 5.7421 94° East  Level Estimated
05:37AM 48.6288 5.8414 94° East  Level Estimated
05:38AM 48.6245 5.9406 94° East  Level Estimated
05:39AM 48.6202 6.0399 94° East  Level Estimated
05:40AM 48.6157 6.1391 94° East  Level Estimated
05:41AM 48.6111 6.2383 94° East  Level Estimated
05:42AM 48.6065 6.3375 94° East  Level Estimated
05:43AM 48.6018 6.4366 94° East  Level Estimated
05:44AM 48.5970 6.5358 94° East  Level Estimated
05:45AM 48.5921 6.6349 94° East  Level Estimated
05:46AM 48.5871 6.7340 94° East  Level Estimated
05:47AM 48.5821 6.8331 94° East  Level Estimated
05:48AM 48.5769 6.9321 94° East  Level Estimated
05:49AM 48.5717 7.0312 95° East  Level Estimated
05:50AM 48.5664 7.1302 95° East  Level Estimated
05:51AM 48.5610 7.2292 95° East  Level Estimated
05:52AM 48.5555 7.3282 95° East  Level Estimated
05:53AM 48.5499 7.4272 95° East  Level Estimated
05:54AM 48.5443 7.5261 95° East  Level Estimated
05:55AM 48.5385 7.6250 95° East  Level Estimated
05:56AM 48.5383 7.6282 95° East  Level Estimated
05:57AM 48.5383 7.6282 North  Level Estimated
05:58AM 48.5383 7.6282 North  Level Estimated
05:59AM 48.5383 7.6282 North  Level Estimated
06:00AM 48.5383 7.6282 North  Level Estimated